Time;durP1;ratioP1;P1;durP2;ratioP2;P2;SDS_P1;SDS_P2;PMS_P1;PMS_P2;Temp;Humidity;BMP_temperature;BMP_pressure;BME280_temperature;BME280_humidity;BME280_pressure;Samples;Min_cycle;Max_cycle;Signal;HPM_P1;HPM_P2
2022/10/01 00:01:46;;;;;;;22.08;3.45;;;16.40;99.90;;;;;;4935244;29;20130;-86
2022/10/01 00:04:12;;;;;;;22.65;2.55;;;16.40;99.90;;;;;;4939992;29;20028;-87
2022/10/01 00:06:37;;;;;;;16.13;2.20;;;16.30;99.90;;;;;;4934653;29;20119;-88
2022/10/01 00:09:03;;;;;;;19.65;2.83;;;16.30;99.90;;;;;;4927336;29;20430;-88
2022/10/01 00:11:29;;;;;;;19.13;3.92;;;16.30;99.90;;;;;;4933766;29;20087;-87
2022/10/01 00:13:56;;;;;;;21.40;3.67;;;16.40;99.90;;;;;;4934217;29;20110;-88
2022/10/01 00:16:25;;;;;;;27.33;3.05;;;16.40;99.90;;;;;;4934040;29;20055;-93
2022/10/01 00:18:52;;;;;;;22.60;2.95;;;16.40;99.90;;;;;;4916827;29;20405;-89
2022/10/01 00:21:33;;;;;;;25.63;3.47;;;16.40;99.90;;;;;;4933229;29;20036;-88
2022/10/01 00:24:03;;;;;;;28.65;3.40;;;16.40;99.90;;;;;;4933380;29;20028;-88
2022/10/01 00:26:34;;;;;;;23.02;2.53;;;16.50;99.90;;;;;;4933292;29;20052;-88
2022/10/01 00:29:07;;;;;;;22.48;2.92;;;16.50;99.90;;;;;;4946225;29;20094;-89
2022/10/01 00:31:33;;;;;;;14.50;2.55;;;16.50;99.90;;;;;;4935460;29;20580;-87
2022/10/01 00:34:02;;;;;;;31.80;3.67;;;16.50;99.90;;;;;;4946593;29;20175;-89
2022/10/01 00:36:28;;;;;;;30.15;3.42;;;16.50;99.90;;;;;;4933048;29;20023;-88
2022/10/01 00:38:59;;;;;;;28.10;2.97;;;16.50;99.90;;;;;;4942410;29;20609;-90
2022/10/01 00:41:27;;;;;;;30.15;3.97;;;16.50;99.90;;;;;;4933118;29;20474;-88
2022/10/01 00:43:57;;;;;;;29.55;4.28;;;16.60;99.90;;;;;;4934307;29;20392;-90
2022/10/01 00:46:39;;;;;;;28.50;4.03;;;16.60;99.90;;;;;;4929376;29;20031;-90
2022/10/01 00:49:14;;;;;;;17.88;2.90;;;16.60;99.90;;;;;;4934730;29;20027;-92
2022/10/01 00:51:45;;;;;;;27.92;3.60;;;16.50;99.90;;;;;;4927079;29;20035;-90
2022/10/01 00:54:16;;;;;;;28.17;3.28;;;16.50;99.90;;;;;;4935677;29;20111;-89
2022/10/01 00:56:43;;;;;;;24.95;3.58;;;16.50;99.90;;;;;;4945864;29;20038;-89
2022/10/01 00:59:10;;;;;;;29.05;3.35;;;16.50;99.90;;;;;;4937690;29;20055;-90
2022/10/01 01:01:37;;;;;;;38.53;4.50;;;16.50;99.90;;;;;;4879513;29;1451504;-90
2022/10/01 01:04:15;;;;;;;37.72;5.18;;;16.50;99.90;;;;;;4923880;29;20118;-89
2022/10/01 01:06:45;;;;;;;35.30;4.07;;;16.60;99.90;;;;;;4945308;29;20164;-90
2022/10/01 01:09:11;;;;;;;29.70;5.03;;;16.60;99.90;;;;;;4920558;29;20027;-90
2022/10/01 01:12:03;;;;;;;31.90;4.32;;;16.60;99.90;;;;;;4933796;29;20039;-90
2022/10/01 01:15:11;;;;;;;42.10;5.00;;;16.60;99.90;;;;;;4923588;29;20055;-90
2022/10/01 01:17:51;;;;;;;42.95;4.75;;;16.60;99.90;;;;;;4933757;29;20036;-92
2022/10/01 01:21:04;;;;;;;50.30;5.65;;;16.60;99.90;;;;;;4933788;29;20020;-89
2022/10/01 01:23:35;;;;;;;32.03;4.63;;;16.60;99.90;;;;;;4922126;29;20040;-89
2022/10/01 01:26:07;;;;;;;40.75;5.40;;;16.60;99.90;;;;;;4933370;29;20059;-89
2022/10/01 01:28:39;;;;;;;45.45;5.10;;;16.70;99.90;;;;;;4915819;29;20126;-87
2022/10/01 01:31:09;;;;;;;41.80;7.35;;;16.60;99.90;;;;;;4925479;29;20032;-89
2022/10/01 01:33:37;;;;;;;39.60;6.20;;;16.70;99.90;;;;;;4932774;29;20034;-88
2022/10/01 01:36:15;;;;;;;51.33;8.07;;;16.70;99.90;;;;;;4944094;29;20032;-88
2022/10/01 01:38:55;;;;;;;37.38;7.78;;;16.70;99.90;;;;;;4915812;29;20503;-89
2022/10/01 01:41:24;;;;;;;35.47;6.75;;;16.70;99.90;;;;;;4932820;29;20507;-88
2022/10/01 01:43:53;;;;;;;49.45;7.43;;;16.70;99.90;;;;;;4932809;29;20572;-89
2022/10/01 01:46:20;;;;;;;36.08;7.20;;;16.70;99.90;;;;;;4933011;29;20023;-89
2022/10/01 01:48:49;;;;;;;34.30;7.55;;;16.70;99.90;;;;;;4936134;29;20063;-90
2022/10/01 01:51:18;;;;;;;36.28;7.55;;;16.70;99.90;;;;;;4942265;29;20031;-89
2022/10/01 01:53:44;;;;;;;36.92;7.47;;;16.70;99.90;;;;;;4943046;29;20055;-90
2022/10/01 01:56:10;;;;;;;35.67;6.78;;;16.70;99.90;;;;;;4932685;29;20059;-91
2022/10/01 01:58:37;;;;;;;35.20;7.68;;;16.70;99.90;;;;;;4922009;29;20031;-90
2022/10/01 02:01:03;;;;;;;34.72;6.78;;;16.80;99.90;;;;;;4932596;29;20381;-88
2022/10/01 02:03:32;;;;;;;28.05;6.70;;;16.80;99.90;;;;;;4932650;29;20551;-89
2022/10/01 02:06:16;;;;;;;28.42;6.90;;;16.80;99.90;;;;;;4919036;29;20037;-89
2022/10/01 02:08:57;;;;;;;32.58;7.72;;;16.80;99.90;;;;;;4932645;29;20047;-90
2022/10/01 02:11:29;;;;;;;39.22;7.78;;;16.80;99.90;;;;;;4932822;29;20082;-89
2022/10/01 02:14:15;;;;;;;32.58;9.52;;;16.90;99.90;;;;;;4920996;29;20576;-89
2022/10/01 02:16:50;;;;;;;42.67;9.65;;;16.80;99.90;;;;;;4932264;29;20024;-90
2022/10/01 02:19:32;;;;;;;36.85;8.77;;;16.80;99.90;;;;;;4933393;29;20031;-89
2022/10/01 02:22:08;;;;;;;34.55;9.30;;;16.90;99.90;;;;;;4918630;29;20560;-90
2022/10/01 02:24:55;;;;;;;23.00;7.50;;;16.80;99.90;;;;;;4926800;29;20031;-90
2022/10/01 02:27:45;;;;;;;29.92;8.30;;;16.90;99.90;;;;;;4915622;29;20040;-90
2022/10/01 02:30:12;;;;;;;32.13;8.85;;;16.90;99.90;;;;;;4932724;29;20043;-91
2022/10/01 02:32:44;;;;;;;34.90;9.23;;;16.90;99.90;;;;;;4932550;29;20048;-90
2022/10/01 02:35:13;;;;;;;37.42;9.50;;;16.90;99.90;;;;;;4915677;29;20051;-90
2022/10/01 02:37:43;;;;;;;29.58;9.77;;;16.90;99.90;;;;;;4944171;29;20059;-90
2022/10/01 02:40:24;;;;;;;39.75;11.50;;;16.90;99.90;;;;;;4911100;29;20058;-89
2022/10/01 02:42:54;;;;;;;38.85;10.63;;;17.00;99.90;;;;;;4915766;29;20032;-89
2022/10/01 02:45:22;;;;;;;34.25;8.80;;;17.00;99.90;;;;;;4938825;29;20107;-91
2022/10/01 02:47:57;;;;;;;37.67;8.90;;;17.00;99.90;;;;;;4916933;29;20638;-91
2022/10/01 02:50:29;;;;;;;35.30;6.95;;;17.00;99.90;;;;;;4937661;29;20456;-93
2022/10/01 02:53:21;;;;;;;42.33;7.18;;;17.00;99.90;;;;;;4926254;29;20028;-91
2022/10/01 02:55:48;;;;;;;32.17;6.93;;;17.00;99.90;;;;;;4928524;29;20038;-90
2022/10/01 02:58:17;;;;;;;39.60;8.20;;;17.00;99.90;;;;;;4931781;29;20030;-90
2022/10/01 03:00:42;;;;;;;45.40;9.35;;;17.00;99.90;;;;;;4938221;29;20028;-90
2022/10/01 03:03:08;;;;;;;40.03;12.05;;;17.00;99.90;;;;;;4915488;29;20150;-89
2022/10/01 03:05:33;;;;;;;38.45;12.18;;;17.00;99.90;;;;;;4932134;29;20023;-89
2022/10/01 03:07:59;;;;;;;50.17;13.18;;;17.10;99.90;;;;;;4935139;29;20032;-88
2022/10/01 03:10:25;;;;;;;47.67;14.43;;;17.10;99.90;;;;;;4946456;29;20518;-90
2022/10/01 03:12:50;;;;;;;54.85;13.80;;;17.00;99.90;;;;;;4949124;29;20115;-92
2022/10/01 03:15:18;;;;;;;40.13;10.60;;;17.10;99.90;;;;;;4936740;29;20075;-91
2022/10/01 03:17:44;;;;;;;49.42;10.57;;;17.10;99.90;;;;;;4936440;29;20016;-91
2022/10/01 03:20:11;;;;;;;49.30;11.40;;;17.00;99.90;;;;;;4940662;29;20039;-92
2022/10/01 03:22:37;;;;;;;44.10;10.20;;;17.10;99.90;;;;;;4936635;29;20433;-90
2022/10/01 03:25:03;;;;;;;37.63;6.80;;;17.00;99.90;;;;;;4936111;29;20674;-93
2022/10/01 03:27:29;;;;;;;37.08;6.45;;;17.00;99.90;;;;;;4940324;29;20064;-93
2022/10/01 03:29:55;;;;;;;39.58;5.75;;;17.10;99.90;;;;;;4937432;29;20115;-92
2022/10/01 03:32:21;;;;;;;38.08;6.63;;;17.10;99.90;;;;;;4947533;29;20039;-90
2022/10/01 03:34:47;;;;;;;37.60;5.68;;;17.10;99.90;;;;;;4930697;29;20153;-91
2022/10/01 03:37:13;;;;;;;36.58;6.25;;;17.10;99.90;;;;;;4936528;29;20043;-92
2022/10/01 03:39:38;;;;;;;41.92;6.30;;;17.10;99.90;;;;;;4937178;29;20425;-95
2022/10/01 03:42:04;;;;;;;40.20;7.03;;;17.20;99.90;;;;;;4936997;29;20030;-91
2022/10/01 03:44:31;;;;;;;45.50;8.00;;;17.20;99.90;;;;;;4925785;29;20028;-92
2022/10/01 03:46:57;;;;;;;47.25;10.48;;;17.20;99.90;;;;;;4940074;29;20469;-90
2022/10/01 03:49:22;;;;;;;43.30;10.10;;;17.20;99.90;;;;;;4936700;29;20024;-89
2022/10/01 03:51:49;;;;;;;47.17;12.07;;;17.20;99.90;;;;;;4935800;29;20480;-91
2022/10/01 03:54:14;;;;;;;57.83;11.77;;;17.20;99.90;;;;;;4935767;29;20023;-90
2022/10/01 03:56:41;;;;;;;55.08;13.05;;;17.20;99.90;;;;;;4940636;29;20441;-91
2022/10/01 03:59:08;;;;;;;55.33;10.90;;;17.20;99.90;;;;;;4938946;29;20080;-90
2022/10/01 04:01:33;;;;;;;49.42;11.15;;;17.20;99.90;;;;;;4934998;29;20032;-92
2022/10/01 04:03:59;;;;;;;61.95;12.95;;;17.30;99.90;;;;;;4936032;29;20034;-91
2022/10/01 04:06:25;;;;;;;47.05;10.07;;;17.20;99.90;;;;;;4935836;29;20032;-92
2022/10/01 04:08:50;;;;;;;63.25;9.90;;;17.20;99.90;;;;;;4946945;29;20039;-90
2022/10/01 04:11:16;;;;;;;58.20;8.32;;;17.20;99.90;;;;;;4926153;29;20518;-92
2022/10/01 04:13:42;;;;;;;53.45;8.48;;;17.20;99.90;;;;;;4941949;29;20167;-93
2022/10/01 04:16:08;;;;;;;55.58;8.10;;;17.20;99.90;;;;;;4927746;29;20046;-91
2022/10/01 04:18:34;;;;;;;43.35;9.73;;;17.20;99.90;;;;;;4934853;29;20035;-89
2022/10/01 04:21:00;;;;;;;51.45;9.98;;;17.30;99.90;;;;;;4934514;29;20030;-90
2022/10/01 04:23:26;;;;;;;50.55;10.35;;;17.20;99.90;;;;;;4939380;29;20031;-89
2022/10/01 04:25:51;;;;;;;43.47;10.70;;;17.30;99.90;;;;;;4936049;29;20036;-89
2022/10/01 04:28:17;;;;;;;45.70;10.13;;;17.30;99.90;;;;;;4957600;29;20048;-90
2022/10/01 04:30:45;;;;;;;43.22;9.68;;;17.30;99.90;;;;;;4917609;29;20122;-89
2022/10/01 04:33:15;;;;;;;38.45;9.50;;;17.30;99.90;;;;;;4934825;29;20027;-91
2022/10/01 04:35:44;;;;;;;62.47;10.85;;;17.30;99.90;;;;;;4935846;29;20023;-94
2022/10/01 04:38:21;;;;;;;48.63;12.63;;;17.30;99.90;;;;;;4919003;29;20031;-94
2022/10/01 04:40:47;;;;;;;45.35;11.20;;;17.30;99.90;;;;;;4920481;29;20528;-92
2022/10/01 04:43:13;;;;;;;55.25;12.77;;;17.30;99.90;;;;;;4935403;29;20030;-91
2022/10/01 04:45:38;;;;;;;48.40;10.38;;;17.30;99.90;;;;;;4938774;29;20079;-90
2022/10/01 04:48:04;;;;;;;65.60;9.88;;;17.30;99.90;;;;;;4920864;29;20031;-93
2022/10/01 04:50:31;;;;;;;46.53;8.68;;;17.30;99.90;;;;;;4940964;29;20040;-93
2022/10/01 04:52:57;;;;;;;43.58;8.93;;;17.30;99.90;;;;;;4938920;29;20046;-94
2022/10/01 04:55:22;;;;;;;53.78;9.95;;;17.30;99.90;;;;;;4946378;29;20404;-93
2022/10/01 04:57:48;;;;;;;49.28;10.20;;;17.30;99.90;;;;;;4918800;29;20099;-92
2022/10/01 05:00:18;;;;;;;44.40;10.32;;;17.30;99.90;;;;;;4949858;29;20031;-91
2022/10/01 05:02:45;;;;;;;45.92;9.85;;;17.30;99.90;;;;;;4933673;29;20047;-92
2022/10/01 05:05:10;;;;;;;44.35;10.13;;;17.30;99.90;;;;;;4918213;29;20027;-92
2022/10/01 05:07:38;;;;;;;56.10;11.82;;;17.30;99.90;;;;;;4941931;29;20023;-93
2022/10/01 05:10:06;;;;;;;44.67;12.90;;;17.30;99.90;;;;;;4949420;29;20031;-91
2022/10/01 05:12:32;;;;;;;47.40;9.65;;;17.30;99.90;;;;;;4922888;29;20469;-93
2022/10/01 05:14:57;;;;;;;38.33;6.28;;;17.30;99.90;;;;;;4941036;29;20023;-95
2022/10/01 05:17:23;;;;;;;30.27;3.90;;;17.30;99.90;;;;;;4934392;29;20031;-90
2022/10/01 05:19:52;;;;;;;34.53;4.40;;;17.30;99.90;;;;;;4940738;29;20023;-94
2022/10/01 05:22:18;;;;;;;33.17;4.13;;;17.30;99.90;;;;;;4935762;29;20024;-93
2022/10/01 05:24:44;;;;;;;26.42;4.18;;;17.30;99.90;;;;;;4924640;29;20488;-92
2022/10/01 05:27:12;;;;;;;21.75;4.07;;;17.30;99.90;;;;;;4943238;29;20032;-93
2022/10/01 05:29:41;;;;;;;22.65;3.22;;;17.20;99.90;;;;;;4937861;29;20042;-94
2022/10/01 05:32:08;;;;;;;23.67;3.72;;;17.10;99.90;;;;;;4920984;29;20071;-94
2022/10/01 05:34:34;;;;;;;22.58;3.10;;;17.10;99.90;;;;;;4923078;29;20118;-91
2022/10/01 05:37:01;;;;;;;24.88;3.15;;;17.10;99.90;;;;;;4934861;29;20032;-91
2022/10/01 05:39:27;;;;;;;18.77;2.60;;;17.10;99.90;;;;;;4934498;29;20036;-93
2022/10/01 05:41:56;;;;;;;24.25;2.92;;;17.10;99.90;;;;;;4933981;29;20039;-93
2022/10/01 05:44:23;;;;;;;21.52;3.75;;;17.20;99.90;;;;;;4930216;29;20063;-92
2022/10/01 05:46:49;;;;;;;29.35;3.35;;;17.20;99.90;;;;;;4919009;29;20032;-91
2022/10/01 05:49:16;;;;;;;34.95;4.88;;;17.20;99.90;;;;;;4923285;29;20024;-92
2022/10/01 05:51:45;;;;;;;26.33;3.55;;;17.30;99.90;;;;;;4933681;29;20087;-91
2022/10/01 05:54:12;;;;;;;30.00;4.40;;;17.20;99.90;;;;;;4926663;29;20151;-91
2022/10/01 05:56:38;;;;;;;35.45;3.45;;;17.20;99.90;;;;;;4931304;29;20626;-92
2022/10/01 05:59:04;;;;;;;42.88;4.40;;;17.10;99.90;;;;;;4932798;29;20304;-89
2022/10/01 06:01:31;;;;;;;22.90;3.75;;;17.10;99.90;;;;;;4932545;29;20057;-89
2022/10/01 06:03:57;;;;;;;30.52;4.80;;;17.00;99.90;;;;;;4932844;29;20038;-89
2022/10/01 06:06:24;;;;;;;37.65;4.68;;;17.00;99.90;;;;;;4932427;29;20395;-89
2022/10/01 06:08:49;;;;;;;33.38;4.70;;;17.10;99.90;;;;;;4920300;29;20115;-90
2022/10/01 06:11:18;;;;;;;44.80;5.85;;;17.00;99.90;;;;;;4915046;29;20127;-91
2022/10/01 06:13:45;;;;;;;41.28;4.95;;;17.10;99.90;;;;;;4932246;29;20028;-92
2022/10/01 06:16:12;;;;;;;32.10;4.50;;;17.10;99.90;;;;;;4931091;29;20051;-90
2022/10/01 06:18:38;;;;;;;38.47;4.22;;;17.10;99.90;;;;;;4934260;29;20028;-92
2022/10/01 06:21:04;;;;;;;43.63;5.75;;;17.20;99.90;;;;;;4945437;29;20028;-92
2022/10/01 06:23:30;;;;;;;35.83;4.47;;;17.20;99.90;;;;;;4925447;29;20031;-92
2022/10/01 06:25:59;;;;;;;44.67;5.88;;;17.10;99.90;;;;;;4921034;29;20346;-92
2022/10/01 06:28:25;;;;;;;36.50;4.97;;;17.20;99.90;;;;;;4940172;29;20055;-91
2022/10/01 06:30:50;;;;;;;42.35;5.28;;;17.20;99.90;;;;;;4936452;29;20027;-91
2022/10/01 06:33:17;;;;;;;38.53;4.75;;;17.20;99.90;;;;;;4935963;29;20087;-90
2022/10/01 06:35:48;;;;;;;39.08;6.13;;;17.20;99.90;;;;;;4933685;29;20488;-91
2022/10/01 06:38:16;;;;;;;39.60;5.25;;;17.20;99.90;;;;;;4935963;29;20030;-92
2022/10/01 06:40:42;;;;;;;37.67;5.43;;;17.30;99.90;;;;;;4921516;29;20028;-93
2022/10/01 06:43:08;;;;;;;46.90;5.80;;;17.30;99.90;;;;;;4939043;29;20026;-92
2022/10/01 06:45:39;;;;;;;37.60;4.75;;;17.30;99.90;;;;;;4940964;29;20091;-91
2022/10/01 06:48:06;;;;;;;35.97;4.35;;;17.30;99.90;;;;;;4944120;29;20019;-92
2022/10/01 06:50:33;;;;;;;32.25;3.72;;;17.30;99.90;;;;;;4959371;29;20243;-91
2022/10/01 06:53:00;;;;;;;26.80;4.22;;;17.20;99.90;;;;;;4942523;29;20015;-90
2022/10/01 06:55:30;;;;;;;19.38;3.38;;;17.20;99.90;;;;;;4945937;29;20063;-90
2022/10/01 06:58:02;;;;;;;21.65;3.38;;;17.30;99.90;;;;;;4946267;29;20020;-91
2022/10/01 07:00:30;;;;;;;17.70;2.70;;;17.20;99.90;;;;;;4946459;29;20027;-90
2022/10/01 07:02:55;;;;;;;24.60;3.22;;;17.20;99.90;;;;;;4935126;29;20070;-92
2022/10/01 07:05:25;;;;;;;18.73;2.50;;;17.30;99.90;;;;;;4947158;29;20432;-91
2022/10/01 07:07:52;;;;;;;14.18;2.78;;;17.30;99.90;;;;;;4939330;29;20105;-90
2022/10/01 07:10:19;;;;;;;16.83;2.67;;;17.30;99.90;;;;;;4938547;29;20411;-93
2022/10/01 07:12:49;;;;;;;23.50;3.35;;;17.30;99.90;;;;;;4946476;29;20457;-91
2022/10/01 07:15:16;;;;;;;16.63;3.50;;;17.30;99.90;;;;;;4935908;29;20020;-90
2022/10/01 07:17:50;;;;;;;20.90;3.88;;;17.30;99.90;;;;;;4932666;29;20134;-89
2022/10/01 07:20:20;;;;;;;20.50;3.50;;;17.30;99.90;;;;;;4943896;29;20050;-89
2022/10/01 07:22:47;;;;;;;24.92;3.58;;;17.30;99.90;;;;;;4937581;29;20118;-91
2022/10/01 07:25:13;;;;;;;19.30;3.58;;;17.30;99.90;;;;;;4935459;29;20023;-91
2022/10/01 07:27:39;;;;;;;32.55;4.68;;;17.40;99.90;;;;;;4918491;29;20032;-89
2022/10/01 07:30:06;;;;;;;31.52;5.05;;;17.40;99.90;;;;;;4935275;29;20515;-90
2022/10/01 07:32:34;;;;;;;26.20;4.63;;;17.40;99.90;;;;;;4937350;29;20500;-89
2022/10/01 07:35:00;;;;;;;30.77;4.47;;;17.40;99.90;;;;;;4935440;29;20035;-88
2022/10/01 07:37:26;;;;;;;39.03;5.30;;;17.50;99.90;;;;;;4922680;29;20043;-90
2022/10/01 07:39:51;;;;;;;22.30;3.60;;;17.50;99.90;;;;;;4921600;29;20032;-87
2022/10/01 07:42:17;;;;;;;33.17;4.90;;;17.50;99.90;;;;;;4933184;29;20071;-89
2022/10/01 07:44:43;;;;;;;25.80;4.47;;;17.50;99.90;;;;;;4935135;29;20412;-90
2022/10/01 07:47:08;;;;;;;34.58;5.20;;;17.50;99.90;;;;;;4933539;29;20500;-90
2022/10/01 07:49:34;;;;;;;47.72;6.45;;;17.60;99.90;;;;;;4933205;29;20036;-90
2022/10/01 07:52:00;;;;;;;35.55;4.93;;;17.60;99.90;;;;;;4921010;29;20028;-91
2022/10/01 07:54:26;;;;;;;38.75;5.57;;;17.70;99.90;;;;;;4933234;29;20028;-90
2022/10/01 07:56:54;;;;;;;31.15;4.78;;;17.60;99.90;;;;;;4935182;29;20042;-91
2022/10/01 07:59:25;;;;;;;28.95;4.47;;;17.60;99.90;;;;;;4943921;29;20509;-90
2022/10/01 08:01:51;;;;;;;30.73;4.10;;;17.60;99.90;;;;;;4925534;29;20181;-88
2022/10/01 08:07:07;;;;;;;42.97;5.90;;;17.60;99.90;;;;;;4932759;29;20566;-94
2022/10/01 08:09:33;;;;;;;39.08;5.68;;;17.60;99.90;;;;;;4934484;29;20043;-89
2022/10/01 08:11:59;;;;;;;46.45;5.15;;;17.60;99.90;;;;;;4934646;29;20020;-90
2022/10/01 08:14:24;;;;;;;36.83;5.57;;;17.60;99.90;;;;;;4932742;29;20388;-87
2022/10/01 08:16:50;;;;;;;37.08;4.72;;;17.60;99.90;;;;;;4934421;29;20451;-88
2022/10/01 08:19:16;;;;;;;33.35;5.05;;;17.70;99.90;;;;;;4934192;29;20028;-89
2022/10/01 08:21:42;;;;;;;38.22;4.82;;;17.70;99.90;;;;;;4938893;29;20027;-88
2022/10/01 08:24:08;;;;;;;37.58;5.63;;;17.80;99.90;;;;;;4925883;29;20091;-90
2022/10/01 08:26:34;;;;;;;41.67;5.30;;;17.80;99.90;;;;;;4935396;29;20051;-89
2022/10/01 08:29:00;;;;;;;29.48;4.25;;;17.80;99.90;;;;;;4937461;29;20031;-91
2022/10/01 08:31:26;;;;;;;33.92;4.53;;;17.80;99.90;;;;;;4938541;29;20516;-91
2022/10/01 08:33:52;;;;;;;32.30;4.43;;;17.80;99.90;;;;;;4934523;29;20040;-88
2022/10/01 08:36:18;;;;;;;43.10;4.90;;;17.80;99.90;;;;;;4948940;29;20058;-93
2022/10/01 08:38:45;;;;;;;31.35;4.95;;;17.80;99.90;;;;;;4936877;29;20031;-89
2022/10/01 08:41:35;;;;;;;40.33;4.70;;;17.80;99.90;;;;;;4916463;29;20389;-90
2022/10/01 08:44:04;;;;;;;41.28;4.60;;;17.80;99.90;;;;;;4935693;29;20040;-88
2022/10/01 08:46:34;;;;;;;35.15;5.05;;;17.80;99.90;;;;;;4936580;29;20020;-89
2022/10/01 08:49:03;;;;;;;27.65;4.22;;;17.90;99.90;;;;;;4935546;29;20140;-88
2022/10/01 08:51:44;;;;;;;38.28;4.88;;;17.90;99.90;;;;;;4931907;29;20578;-90
2022/10/01 08:54:12;;;;;;;35.70;4.70;;;18.00;99.90;;;;;;4936018;29;20369;-90
2022/10/01 08:56:45;;;;;;;35.80;4.97;;;18.00;99.90;;;;;;4935706;29;20292;-89
2022/10/01 08:59:26;;;;;;;38.78;4.78;;;18.10;99.90;;;;;;4949634;29;20491;-90
2022/10/01 09:01:51;;;;;;;31.45;5.15;;;18.00;99.90;;;;;;4922787;29;20055;-80
2022/10/01 09:04:17;;;;;;;36.80;4.50;;;18.00;99.90;;;;;;4943908;29;20031;-80
2022/10/01 09:06:48;;;;;;;29.80;4.15;;;18.00;99.90;;;;;;4935019;29;20098;-81
2022/10/01 09:09:31;;;;;;;27.95;4.25;;;18.10;99.90;;;;;;4935448;29;20389;-81
2022/10/01 09:12:17;;;;;;;27.88;3.90;;;18.10;99.90;;;;;;4933379;29;20046;-82
2022/10/01 09:15:05;;;;;;;34.03;5.40;;;18.20;99.90;;;;;;4934643;29;20023;-82
2022/10/01 09:18:07;;;;;;;33.65;4.78;;;18.20;99.90;;;;;;4937797;29;20030;-82
2022/10/01 09:20:53;;;;;;;27.75;4.15;;;18.20;99.90;;;;;;4939181;29;20099;-81
2022/10/01 09:23:30;;;;;;;37.97;5.65;;;18.30;99.90;;;;;;4937399;29;20179;-82
2022/10/01 09:26:00;;;;;;;23.52;4.50;;;18.30;99.90;;;;;;4928826;29;20339;-89
2022/10/01 09:28:32;;;;;;;25.52;4.20;;;18.30;99.90;;;;;;4937970;29;20067;-89
2022/10/01 09:31:26;;;;;;;26.27;3.97;;;18.30;99.90;;;;;;4933325;29;20522;-88
2022/10/01 09:34:14;;;;;;;31.15;4.07;;;18.30;99.90;;;;;;4944627;29;20516;-88
2022/10/01 09:37:02;;;;;;;26.55;3.85;;;18.30;99.90;;;;;;4951488;29;20036;-89
2022/10/01 09:39:48;;;;;;;32.75;4.10;;;18.40;99.90;;;;;;4926127;29;20023;-88
2022/10/01 09:42:13;;;;;;;31.02;4.13;;;18.40;99.90;;;;;;4937752;29;20121;-90
2022/10/01 09:44:41;;;;;;;36.17;4.85;;;18.40;99.90;;;;;;4937953;29;20016;-91
2022/10/01 09:47:19;;;;;;;28.55;3.75;;;18.50;99.90;;;;;;4953941;29;20054;-91
2022/10/01 09:49:46;;;;;;;37.35;4.90;;;18.40;99.90;;;;;;4916575;29;20032;-89
2022/10/01 09:52:25;;;;;;;29.60;3.70;;;18.40;99.90;;;;;;4944006;29;20066;-91
2022/10/01 09:55:11;;;;;;;21.55;3.72;;;18.40;99.90;;;;;;4948341;29;20164;-91
2022/10/01 09:57:39;;;;;;;32.28;5.47;;;18.60;99.90;;;;;;4922906;29;20028;-89
2022/10/01 10:00:09;;;;;;;22.80;3.63;;;18.60;99.90;;;;;;4933429;29;20024;-90
2022/10/01 10:02:45;;;;;;;22.23;3.28;;;18.60;99.90;;;;;;4943580;29;20056;-89
2022/10/01 10:05:19;;;;;;;26.20;4.50;;;18.60;99.90;;;;;;4943546;29;20030;-90
2022/10/01 10:08:09;;;;;;;28.00;4.03;;;18.60;99.90;;;;;;4935053;29;20044;-91
2022/10/01 10:10:38;;;;;;;24.08;3.70;;;18.70;99.90;;;;;;4935966;29;20220;-89
2022/10/01 10:13:09;;;;;;;21.40;3.42;;;18.70;99.90;;;;;;4921836;29;20028;-91
2022/10/01 10:15:42;;;;;;;26.83;3.10;;;18.80;99.90;;;;;;4933489;29;20039;-90
2022/10/01 10:18:16;;;;;;;31.15;6.47;;;18.80;99.90;;;;;;4934308;29;20508;-89
2022/10/01 10:20:44;;;;;;;19.80;3.75;;;18.80;99.90;;;;;;4926758;29;20118;-89
2022/10/01 10:23:17;;;;;;;28.48;4.28;;;18.80;99.90;;;;;;4932767;29;20091;-89
2022/10/01 10:25:43;;;;;;;36.17;5.18;;;18.80;99.90;;;;;;4932622;29;20445;-91
2022/10/01 10:28:19;;;;;;;23.30;3.97;;;18.90;99.90;;;;;;4935970;29;20028;-89
2022/10/01 10:30:46;;;;;;;24.98;3.83;;;18.90;99.90;;;;;;4938224;29;20046;-89
2022/10/01 10:33:13;;;;;;;24.80;4.60;;;18.90;99.90;;;;;;4935484;29;20219;-89
2022/10/01 10:35:40;;;;;;;24.55;3.58;;;18.90;99.90;;;;;;4943287;29;20032;-89
2022/10/01 10:38:14;;;;;;;31.73;4.93;;;19.00;99.90;;;;;;4941626;29;20016;-90
2022/10/01 10:40:42;;;;;;;14.43;3.03;;;19.00;99.90;;;;;;4942345;29;20142;-90
2022/10/01 10:43:21;;;;;;;27.35;4.40;;;18.90;99.90;;;;;;4940322;29;20034;-90
2022/10/01 10:45:54;;;;;;;30.63;4.90;;;18.90;99.90;;;;;;4920852;29;20032;-89
2022/10/01 10:48:22;;;;;;;32.53;3.85;;;18.90;99.90;;;;;;4942895;29;20047;-89
2022/10/01 10:50:48;;;;;;;20.00;3.45;;;18.80;99.90;;;;;;4943505;29;20339;-89
2022/10/01 10:53:26;;;;;;;14.15;2.72;;;18.90;99.90;;;;;;4947953;29;20051;-90
2022/10/01 10:56:04;;;;;;;19.83;2.88;;;18.90;99.90;;;;;;4940454;29;20091;-90
2022/10/01 10:58:39;;;;;;;22.92;3.22;;;18.90;99.90;;;;;;4942106;29;20030;-89
2022/10/01 11:01:10;;;;;;;16.25;2.83;;;19.00;99.90;;;;;;4941772;29;20020;-90
2022/10/01 11:03:42;;;;;;;9.68;2.03;;;19.10;99.90;;;;;;4925220;29;20051;-90
2022/10/01 11:06:13;;;;;;;18.88;2.05;;;19.00;99.90;;;;;;4951454;29;20338;-90
2022/10/01 11:08:40;;;;;;;14.77;2.00;;;19.00;99.90;;;;;;4942849;29;20083;-90
2022/10/01 11:11:24;;;;;;;9.63;1.73;;;19.00;99.90;;;;;;4927794;29;20040;-90
2022/10/01 11:13:58;;;;;;;14.68;2.25;;;19.10;99.90;;;;;;4957263;29;20038;-90
2022/10/01 11:16:45;;;;;;;;;;;19.10;99.90;;;;;;4946691;29;20023;-90
2022/10/01 11:19:34;;;;;;;12.27;1.65;;;19.00;99.90;;;;;;4943401;29;19941;-90
2022/10/01 11:22:08;;;;;;;15.95;2.42;;;19.10;99.90;;;;;;4935648;29;20067;-90
2022/10/01 11:24:34;;;;;;;;;;;19.10;99.90;;;;;;4942355;29;20032;-89
2022/10/01 11:27:21;;;;;;;20.15;2.85;;;19.10;99.90;;;;;;4943207;29;19934;-90
2022/10/01 11:30:03;;;;;;;23.15;3.00;;;19.20;99.90;;;;;;4910871;29;20036;-91
2022/10/01 11:32:40;;;;;;;17.55;2.22;;;19.50;99.90;;;;;;4945935;29;20043;-91
2022/10/01 11:35:26;;;;;;;20.27;2.60;;;19.60;99.90;;;;;;4953255;29;20031;-90
2022/10/01 11:38:10;;;;;;;13.35;2.15;;;19.80;99.90;;;;;;4947850;29;20079;-91
2022/10/01 11:40:37;;;;;;;19.65;2.70;;;19.90;99.90;;;;;;4947506;29;20019;-90
2022/10/01 11:43:15;;;;;;;12.63;1.90;;;19.90;99.90;;;;;;4946212;29;20038;-91
2022/10/01 11:45:48;;;;;;;17.15;2.03;;;19.90;99.90;;;;;;4926824;29;20031;-90
2022/10/01 11:48:25;;;;;;;13.10;1.98;;;19.90;99.90;;;;;;4929243;29;20027;-90
2022/10/01 11:50:54;;;;;;;13.73;2.58;;;20.00;99.90;;;;;;4946048;29;20252;-91
2022/10/01 11:53:38;;;;;;;21.13;3.15;;;20.10;99.90;;;;;;4930456;29;20015;-91
2022/10/01 11:59:22;;;;;;;13.88;2.55;;;20.10;99.90;;;;;;4947105;29;20023;-91
2022/10/01 12:02:15;;;;;;;15.90;1.90;;;20.20;99.90;;;;;;4944317;29;20044;-90
2022/10/01 12:05:08;;;;;;;13.45;2.58;;;20.30;99.90;;;;;;4926572;29;20107;-91
2022/10/01 12:07:55;;;;;;;8.27;1.38;;;20.40;99.90;;;;;;4928187;29;20091;-91
2022/10/01 12:10:36;;;;;;;10.57;2.63;;;20.50;99.90;;;;;;4943552;29;20034;-90
2022/10/01 12:13:27;;;;;;;13.02;2.25;;;20.50;99.90;;;;;;4930853;29;20371;-90
2022/10/01 12:16:12;;;;;;;13.10;2.10;;;20.50;99.90;;;;;;4941171;29;20028;-91
2022/10/01 12:18:53;;;;;;;15.57;2.72;;;20.60;99.90;;;;;;4924621;29;20102;-90
2022/10/01 12:21:37;;;;;;;11.60;1.85;;;20.60;99.90;;;;;;4955226;29;20511;-90
2022/10/01 12:24:12;;;;;;;11.07;2.03;;;20.60;99.90;;;;;;4947618;29;20042;-91
2022/10/01 12:26:51;;;;;;;18.02;2.58;;;20.50;99.90;;;;;;4946114;29;20155;-89
2022/10/01 12:29:25;;;;;;;15.73;2.08;;;20.40;99.90;;;;;;4947413;29;20192;-91
2022/10/01 12:32:21;;;;;;;16.45;1.83;;;20.30;99.90;;;;;;4956392;29;20393;-90
2022/10/01 12:34:56;;;;;;;11.52;1.58;;;20.40;99.90;;;;;;4926671;29;20082;-90
2022/10/01 12:37:43;;;;;;;13.20;1.73;;;20.40;99.90;;;;;;4945189;29;20024;-89
2022/10/01 12:40:39;;;;;;;13.88;2.85;;;20.40;99.90;;;;;;4946013;29;20098;-90
2022/10/01 12:43:34;;;;;;;10.55;2.03;;;20.50;99.90;;;;;;4944197;29;20024;-90
2022/10/01 12:46:20;;;;;;;7.47;1.33;;;20.40;99.90;;;;;;4954170;29;20017;-89
2022/10/01 12:49:10;;;;;;;12.00;1.67;;;20.40;99.90;;;;;;4945375;29;20019;-88
2022/10/01 12:51:51;;;;;;;12.10;2.28;;;20.20;99.90;;;;;;4945263;29;20036;-89
2022/10/01 12:54:44;;;;;;;16.73;2.45;;;20.30;99.90;;;;;;4945011;29;20030;-88
2022/10/01 12:57:23;;;;;;;14.95;3.00;;;20.40;99.90;;;;;;4946093;29;20032;-87
2022/10/01 13:00:25;;;;;;;16.38;3.08;;;20.60;99.90;;;;;;4939127;29;20019;-87
2022/10/01 13:03:02;;;;;;;18.88;2.97;;;20.60;99.90;;;;;;4939770;29;20079;-88
2022/10/01 13:05:53;;;;;;;19.67;3.10;;;20.50;99.90;;;;;;4941347;29;20252;-89